createdAt,value
2023-02-04T00:00:23.112Z,6.68
2023-02-04T00:02:51.118Z,6.73
2023-02-04T00:05:19.242Z,6.75
2023-02-04T00:07:46.328Z,6.84
2023-02-04T00:10:13.670Z,6.83
2023-02-04T00:12:41.281Z,6.90
2023-02-04T00:15:08.815Z,6.95
2023-02-04T00:17:35.744Z,6.97
2023-02-04T00:20:02.682Z,7.10
2023-02-04T00:22:29.605Z,7.12
2023-02-04T00:24:56.842Z,7.11
2023-02-04T00:27:23.712Z,7.22
2023-02-04T00:29:50.711Z,7.23
2023-02-04T00:32:17.746Z,7.29
2023-02-04T00:34:44.954Z,7.33
2023-02-04T00:37:12.425Z,7.42
2023-02-04T00:39:39.384Z,7.46
2023-02-04T00:42:06.841Z,7.48
2023-02-04T00:44:36.941Z,7.60
2023-02-04T00:47:05.209Z,7.60
2023-02-04T00:49:34.493Z,7.69
2023-02-04T00:52:01.707Z,7.71
2023-02-04T00:54:29.357Z,7.73
2023-02-04T00:56:56.362Z,7.73
2023-02-04T00:59:23.667Z,7.78
2023-02-04T01:01:51.755Z,7.82
2023-02-04T01:04:19.130Z,7.86
2023-02-04T01:06:46.137Z,7.85
2023-02-04T01:09:13.929Z,7.89
2023-02-04T01:11:40.944Z,7.96
2023-02-04T01:14:11.737Z,8.01
2023-02-04T01:16:41.447Z,8.09
2023-02-04T01:19:08.516Z,8.13
2023-02-04T01:21:35.544Z,8.24
2023-02-04T01:24:02.639Z,8.27
2023-02-04T01:26:29.775Z,8.37
2023-02-04T01:28:56.725Z,8.43
2023-02-04T01:31:25.939Z,8.51
2023-02-04T01:33:53.126Z,8.59
2023-02-04T01:36:21.808Z,8.61
2023-02-04T01:38:50.271Z,8.61
2023-02-04T01:41:18.609Z,8.65
2023-02-04T01:43:47.377Z,8.69
2023-02-04T01:46:15.551Z,8.68
2023-02-04T01:48:42.942Z,8.78
2023-02-04T01:51:14.081Z,8.80
2023-02-04T01:53:42.052Z,8.79
2023-02-04T01:56:30.769Z,8.85
2023-02-04T01:58:59.216Z,8.86
2023-02-04T02:01:54.298Z,8.98
2023-02-04T02:04:31.751Z,9.00
2023-02-04T02:07:05.646Z,9.02
2023-02-04T02:09:33.924Z,9.07
2023-02-04T02:12:03.223Z,9.14
2023-02-04T02:14:30.389Z,9.19
2023-02-04T02:16:57.552Z,9.28
2023-02-04T02:19:33.687Z,9.32
2023-02-04T02:22:15.395Z,9.32
2023-02-04T02:24:42.395Z,9.34
2023-02-04T02:27:11.954Z,9.31
2023-02-04T02:29:42.557Z,9.38
2023-02-04T02:32:12.891Z,9.39
2023-02-04T02:34:40.579Z,9.40
2023-02-04T02:37:12.872Z,9.46
2023-02-04T02:39:43.473Z,9.42
2023-02-04T02:42:15.680Z,9.48
2023-02-04T02:44:44.836Z,9.51
2023-02-04T02:47:15.846Z,9.51
2023-02-04T02:49:44.185Z,9.53
2023-02-04T02:52:14.282Z,9.53
2023-02-04T02:54:42.452Z,9.56
2023-02-04T02:57:16.241Z,9.56
2023-02-04T02:59:45.445Z,9.53
2023-02-04T03:02:17.136Z,9.58
2023-02-04T03:04:50.646Z,9.54
2023-02-04T03:07:21.411Z,9.56
2023-02-04T03:09:49.453Z,9.57
2023-02-04T03:12:16.834Z,9.57
2023-02-04T03:14:43.923Z,9.58
2023-02-04T03:17:11.995Z,9.54
2023-02-04T03:19:39.884Z,9.56
2023-02-04T03:22:08.314Z,9.53
2023-02-04T03:24:37.184Z,9.58
2023-02-04T03:27:04.445Z,9.54
2023-02-04T03:29:31.416Z,9.56
2023-02-04T03:32:00.144Z,9.62
2023-02-04T03:34:27.507Z,9.46
2023-02-04T03:36:54.637Z,9.51
2023-02-04T03:39:21.587Z,9.52
2023-02-04T03:41:48.477Z,9.49
2023-02-04T03:44:15.367Z,9.47
2023-02-04T03:46:42.304Z,9.42
2023-02-04T03:49:09.883Z,9.39
2023-02-04T03:51:36.796Z,9.38
2023-02-04T03:54:04.418Z,9.38
2023-02-04T03:56:32.631Z,9.40
2023-02-04T03:58:59.680Z,9.47
2023-02-04T04:01:26.668Z,9.47
2023-02-04T04:03:53.570Z,9.40
2023-02-04T04:06:20.781Z,9.39
2023-02-04T04:08:47.694Z,9.33
2023-02-04T04:11:14.725Z,9.33
2023-02-04T04:13:41.650Z,9.32
2023-02-04T04:16:09.243Z,9.34
2023-02-04T04:18:36.606Z,9.31
2023-02-04T04:21:03.870Z,9.27
2023-02-04T04:23:30.872Z,9.29
2023-02-04T04:25:57.740Z,9.27
2023-02-04T04:28:24.559Z,9.25
2023-02-04T04:30:51.466Z,9.24
2023-02-04T04:33:18.359Z,9.21
2023-02-04T04:35:45.328Z,9.11
2023-02-04T04:38:12.584Z,9.05
2023-02-04T04:40:39.593Z,9.01
2023-02-04T04:43:06.642Z,8.96
2023-02-04T04:45:33.484Z,8.92
2023-02-04T04:48:00.563Z,8.88
2023-02-04T04:50:27.757Z,8.80
2023-02-04T04:52:54.678Z,8.70
2023-02-04T04:55:21.690Z,8.64
2023-02-04T04:57:49.009Z,8.59
2023-02-04T05:00:19.487Z,8.52
2023-02-04T05:02:46.637Z,8.46
2023-02-04T05:05:14.057Z,8.45
2023-02-04T05:07:40.979Z,8.41
2023-02-04T05:10:08.560Z,8.39
2023-02-04T05:12:35.506Z,8.36
2023-02-04T05:15:02.745Z,8.33
2023-02-04T05:17:30.282Z,8.28
2023-02-04T05:20:00.184Z,8.26
2023-02-04T05:22:27.177Z,8.22
2023-02-04T05:24:54.430Z,8.14
2023-02-04T05:27:22.877Z,8.09
2023-02-04T05:29:49.854Z,8.05
2023-02-04T05:32:16.780Z,8.01
2023-02-04T05:34:43.722Z,7.95
2023-02-04T05:37:11.173Z,7.90
2023-02-04T05:39:41.489Z,7.87
2023-02-04T05:42:08.448Z,7.83
2023-02-04T05:44:35.315Z,7.80
2023-02-04T05:47:02.246Z,7.78
2023-02-04T05:49:29.224Z,7.75
2023-02-04T05:51:56.146Z,7.70
2023-02-04T05:54:24.022Z,7.65
2023-02-04T05:56:51.918Z,7.60
2023-02-04T05:59:20.657Z,7.52
2023-02-04T06:01:47.672Z,7.45
2023-02-04T06:04:16.586Z,7.43
2023-02-04T06:06:44.233Z,7.37
2023-02-04T06:09:11.844Z,7.28
2023-02-04T06:11:38.865Z,7.24
2023-02-04T06:14:06.147Z,7.20
2023-02-04T06:16:33.718Z,7.18
2023-02-04T06:19:00.615Z,7.14
2023-02-04T06:21:28.203Z,7.14
2023-02-04T06:23:55.221Z,7.12
2023-02-04T06:26:22.209Z,7.12
2023-02-04T06:28:49.186Z,7.10
2023-02-04T06:31:16.129Z,7.08
2023-02-04T06:33:43.950Z,7.07
2023-02-04T06:36:10.885Z,7.05
2023-02-04T06:38:37.975Z,7.03
2023-02-04T06:41:05.239Z,6.98
2023-02-04T06:43:32.318Z,6.95
2023-02-04T06:45:59.300Z,6.91
2023-02-04T06:48:26.207Z,6.88
2023-02-04T06:50:53.234Z,6.82
2023-02-04T06:53:20.294Z,6.79
2023-02-04T06:55:48.264Z,6.79
2023-02-04T06:58:15.836Z,6.78
2023-02-04T07:00:43.277Z,6.79
2023-02-04T07:03:12.888Z,6.81
2023-02-04T07:05:39.819Z,6.78
2023-02-04T07:08:06.767Z,6.76
2023-02-04T07:10:34.976Z,6.75
2023-02-04T07:13:02.562Z,6.70
2023-02-04T07:15:29.657Z,6.69
2023-02-04T07:17:56.616Z,6.66
2023-02-04T07:20:23.557Z,6.65
2023-02-04T07:22:50.436Z,6.64
2023-02-04T07:25:18.061Z,6.63
2023-02-04T07:27:45.476Z,6.64
2023-02-04T07:30:13.565Z,6.64
2023-02-04T07:32:40.506Z,6.62
2023-02-04T07:35:08.204Z,6.61
2023-02-04T07:37:35.476Z,6.62
2023-02-04T07:40:02.534Z,6.63
2023-02-04T07:42:29.474Z,6.65
2023-02-04T07:45:05.566Z,6.67
2023-02-04T07:47:32.612Z,6.68
2023-02-04T07:50:02.471Z,6.71
2023-02-04T07:52:29.491Z,6.73
2023-02-04T07:54:56.654Z,6.74
2023-02-04T07:57:23.978Z,6.76
2023-02-04T07:59:51.940Z,6.80
2023-02-04T08:02:21.314Z,6.85
2023-02-04T08:04:50.383Z,6.85
2023-02-04T08:07:18.495Z,6.90
2023-02-04T08:09:46.986Z,6.95
2023-02-04T08:12:14.036Z,6.97
2023-02-04T08:14:40.995Z,7.00
2023-02-04T08:17:10.271Z,7.05
2023-02-04T08:19:37.886Z,7.09
2023-02-04T08:22:04.857Z,7.12
2023-02-04T08:24:31.917Z,7.15
2023-02-04T08:26:59.392Z,7.19
2023-02-04T08:29:26.363Z,7.26
2023-02-04T08:31:53.381Z,7.29
2023-02-04T08:34:21.015Z,7.34
2023-02-04T08:36:48.199Z,7.40
2023-02-04T08:39:15.264Z,7.45
2023-02-04T08:41:42.324Z,7.52
2023-02-04T08:44:09.330Z,7.58
2023-02-04T08:46:39.718Z,7.65
2023-02-04T08:49:06.833Z,7.71
2023-02-04T08:51:33.839Z,7.81
2023-02-04T08:54:01.041Z,7.88
2023-02-04T08:56:28.403Z,7.96
2023-02-04T08:58:56.661Z,8.07
2023-02-04T09:01:23.853Z,8.13
2023-02-04T09:03:51.172Z,8.23
2023-02-04T09:06:18.406Z,8.32
2023-02-04T09:08:46.829Z,8.39
2023-02-04T09:11:15.112Z,8.48
2023-02-04T09:13:44.625Z,8.56
2023-02-04T09:16:12.540Z,8.62
2023-02-04T09:18:39.817Z,8.72
2023-02-04T09:21:07.036Z,8.82
2023-02-04T09:23:34.106Z,8.93
2023-02-04T09:26:01.491Z,9.00
2023-02-04T09:28:28.499Z,9.07
2023-02-04T09:30:55.617Z,9.16
2023-02-04T09:33:22.729Z,9.24
2023-02-04T09:35:50.165Z,9.30
2023-02-04T09:38:17.244Z,9.37
2023-02-04T09:40:51.041Z,9.44
2023-02-04T09:43:25.219Z,9.51
2023-02-04T09:45:54.288Z,9.57
2023-02-04T09:48:24.038Z,9.66
2023-02-04T09:50:52.560Z,9.70
2023-02-04T09:53:23.641Z,9.78
2023-02-04T09:55:51.824Z,9.89
2023-02-04T09:58:22.701Z,9.99
2023-02-04T10:01:17.776Z,10.08
2023-02-04T10:03:54.304Z,10.16
2023-02-04T10:06:23.879Z,10.23
2023-02-04T10:08:52.313Z,10.34
2023-02-04T10:11:22.682Z,10.41
2023-02-04T10:13:55.045Z,10.48
2023-02-04T10:16:29.938Z,10.56
2023-02-04T10:19:04.870Z,10.62
2023-02-04T10:21:40.427Z,10.70
2023-02-04T10:24:15.680Z,10.79
2023-02-04T10:26:43.647Z,10.87
2023-02-04T10:29:21.117Z,10.94
2023-02-04T10:31:50.600Z,11.01
2023-02-04T10:34:23.013Z,11.05
2023-02-04T10:36:57.217Z,11.14
2023-02-04T10:39:30.100Z,11.18
2023-02-04T10:42:00.365Z,11.26
2023-02-04T10:44:32.481Z,11.34
2023-02-04T10:47:24.830Z,11.40
2023-02-04T10:50:15.918Z,11.49
2023-02-04T10:52:48.555Z,11.55
2023-02-04T10:55:19.425Z,11.63
2023-02-04T10:57:50.120Z,11.68
2023-02-04T11:00:26.638Z,11.73
2023-02-04T11:03:02.259Z,11.75
2023-02-04T11:05:35.466Z,11.83
2023-02-04T11:08:04.705Z,11.87
2023-02-04T11:10:35.751Z,11.93
2023-02-04T11:13:07.056Z,11.99
2023-02-04T11:15:51.327Z,12.03
2023-02-04T11:18:25.576Z,12.11
2023-02-04T11:20:58.907Z,12.16
2023-02-04T11:23:25.892Z,12.21
2023-02-04T11:26:19.886Z,12.38
2023-02-04T11:28:59.471Z,12.35
2023-02-04T11:32:02.091Z,12.42
2023-02-04T11:34:31.612Z,12.49
2023-02-04T11:37:01.649Z,12.59
2023-02-04T11:39:44.031Z,12.63
2023-02-04T11:42:33.483Z,12.66
2023-02-04T11:45:08.489Z,12.75
2023-02-04T11:47:36.967Z,12.83
2023-02-04T11:50:35.867Z,12.94
2023-02-04T11:53:02.988Z,13.04
2023-02-04T11:55:35.565Z,13.03
2023-02-04T11:58:06.368Z,13.14
2023-02-04T12:00:35.897Z,13.22
2023-02-04T12:03:08.404Z,13.26
2023-02-04T12:05:49.969Z,13.30
2023-02-04T12:08:22.795Z,13.39
2023-02-04T12:11:12.514Z,13.47
2023-02-04T12:13:50.724Z,13.56
2023-02-04T12:16:18.180Z,13.66
2023-02-04T12:18:47.100Z,13.73
2023-02-04T12:21:14.683Z,13.70
2023-02-04T12:23:44.645Z,13.83
2023-02-04T12:26:12.278Z,13.96
2023-02-04T12:28:39.438Z,13.92
2023-02-04T12:31:06.705Z,13.97
2023-02-04T12:33:33.917Z,14.06
2023-02-04T12:36:01.567Z,14.16
2023-02-04T12:38:29.159Z,14.24
2023-02-04T12:40:56.216Z,14.33
2023-02-04T12:43:23.621Z,14.41
2023-02-04T12:45:50.642Z,14.48
2023-02-04T12:48:17.710Z,14.57
2023-02-04T12:50:47.394Z,14.62
2023-02-04T12:53:14.366Z,14.66
2023-02-04T12:55:41.375Z,14.72
2023-02-04T12:58:08.491Z,14.80
2023-02-04T13:00:35.612Z,14.84
2023-02-04T13:03:05.685Z,14.91
2023-02-04T13:05:33.200Z,14.96
2023-02-04T13:08:00.416Z,15.01
2023-02-04T13:10:27.415Z,15.05
2023-02-04T13:12:54.394Z,15.08
2023-02-04T13:15:21.378Z,15.14
2023-02-04T13:17:50.918Z,15.18
2023-02-04T13:20:18.974Z,15.24
2023-02-04T13:22:46.165Z,15.30
2023-02-04T13:25:15.750Z,15.38
2023-02-04T13:27:44.843Z,15.41
2023-02-04T13:30:14.980Z,15.46
2023-02-04T13:32:42.071Z,15.51
2023-02-04T13:35:09.358Z,15.49
2023-02-04T13:37:36.446Z,15.59
2023-02-04T13:40:03.928Z,15.54
2023-02-04T13:42:31.042Z,15.52
2023-02-04T13:44:58.245Z,15.56
2023-02-04T13:47:26.476Z,15.63
2023-02-04T13:49:53.469Z,15.71
2023-02-04T13:52:21.428Z,15.74
2023-02-04T13:54:48.399Z,15.77
2023-02-04T13:57:19.153Z,15.80
2023-02-04T13:59:47.788Z,15.83
2023-02-04T14:02:15.014Z,15.84
2023-02-04T14:04:44.024Z,15.87
2023-02-04T14:07:10.946Z,15.93
2023-02-04T14:09:37.975Z,15.92
2023-02-04T14:12:05.592Z,15.93
2023-02-04T14:14:32.650Z,15.97
2023-02-04T14:17:00.636Z,15.98
2023-02-04T14:19:28.632Z,16.01
2023-02-04T14:21:56.239Z,16.04
2023-02-04T14:24:23.576Z,16.08
2023-02-04T14:26:50.963Z,16.10
2023-02-04T14:29:18.039Z,16.13
2023-02-04T14:31:45.117Z,16.17
2023-02-04T14:34:12.216Z,16.18
2023-02-04T14:36:39.550Z,16.17
2023-02-04T14:39:06.634Z,16.16
2023-02-04T14:41:33.690Z,16.17
2023-02-04T14:44:01.988Z,16.12
2023-02-04T14:46:29.042Z,16.11
2023-02-04T14:48:56.128Z,16.12
2023-02-04T14:51:23.149Z,16.09
2023-02-04T14:53:50.120Z,16.10
2023-02-04T14:56:17.547Z,16.02
2023-02-04T14:58:45.162Z,15.95
2023-02-04T15:01:12.214Z,15.90
2023-02-04T15:03:39.350Z,15.86
2023-02-04T15:06:06.546Z,15.82
2023-02-04T15:08:33.906Z,15.77
2023-02-04T15:11:01.018Z,15.71
2023-02-04T15:13:29.386Z,15.63
2023-02-04T15:15:56.335Z,15.58
2023-02-04T15:18:23.531Z,15.50
2023-02-04T15:20:50.559Z,15.49
2023-02-04T15:23:18.227Z,15.40
2023-02-04T15:25:45.810Z,15.36
2023-02-04T15:28:13.460Z,15.30
2023-02-04T15:30:43.814Z,15.25
2023-02-04T15:33:13.099Z,15.20
2023-02-04T15:35:40.981Z,15.17
2023-02-04T15:38:08.083Z,15.13
2023-02-04T15:40:35.340Z,15.07
2023-02-04T15:43:02.501Z,15.06
2023-02-04T15:45:29.489Z,15.00
2023-02-04T15:47:56.537Z,14.96
2023-02-04T15:50:23.441Z,14.91
2023-02-04T15:52:50.797Z,14.87
2023-02-04T15:55:18.025Z,14.83
2023-02-04T15:57:47.266Z,14.78
2023-02-04T16:00:15.735Z,14.71
2023-02-04T16:02:43.154Z,14.65
2023-02-04T16:05:10.115Z,14.58
2023-02-04T16:07:37.118Z,14.52
2023-02-04T16:10:06.629Z,14.46
2023-02-04T16:12:33.648Z,14.40
2023-02-04T16:15:00.744Z,14.33
2023-02-04T16:17:28.638Z,14.27
2023-02-04T16:19:55.990Z,14.22
2023-02-04T16:22:23.298Z,14.16
2023-02-04T16:24:52.903Z,14.10
2023-02-04T16:27:20.030Z,14.06
2023-02-04T16:29:47.124Z,13.99
2023-02-04T16:32:15.058Z,13.93
2023-02-04T16:34:42.287Z,13.85
2023-02-04T16:37:09.225Z,13.75
2023-02-04T16:39:38.987Z,13.68
2023-02-04T16:42:08.902Z,13.60
2023-02-04T16:44:39.294Z,13.51
2023-02-04T16:47:07.964Z,13.45
2023-02-04T16:49:36.057Z,13.38
2023-02-04T16:52:05.204Z,13.27
2023-02-04T16:54:34.289Z,13.21
2023-02-04T16:57:02.889Z,13.15
2023-02-04T16:59:32.080Z,13.12
2023-02-04T17:02:00.786Z,12.98
2023-02-04T17:04:28.725Z,12.93
2023-02-04T17:06:56.716Z,12.86
2023-02-04T17:09:24.353Z,12.80
2023-02-04T17:11:52.240Z,12.76
2023-02-04T17:14:21.857Z,12.72
2023-02-04T17:17:10.068Z,12.73
2023-02-04T17:19:37.140Z,12.69
2023-02-04T17:22:04.069Z,12.78
2023-02-04T17:24:31.045Z,12.78
2023-02-04T17:26:58.029Z,12.78
2023-02-04T17:29:25.035Z,12.78
2023-02-04T17:31:52.922Z,12.78
2023-02-04T17:34:19.923Z,12.72
2023-02-04T17:36:46.975Z,12.74
2023-02-04T17:39:14.123Z,12.67
2023-02-04T17:41:41.029Z,12.61
2023-02-04T17:44:08.281Z,12.59
2023-02-04T17:46:35.590Z,12.54
2023-02-04T17:49:03.103Z,12.52
2023-02-04T17:51:30.394Z,12.44
2023-02-04T17:53:57.322Z,12.41
2023-02-04T17:56:25.198Z,12.36
2023-02-04T17:59:02.540Z,12.22
2023-02-04T18:01:29.782Z,12.20
2023-02-04T18:03:58.246Z,12.18
2023-02-04T18:06:29.025Z,12.16
2023-02-04T18:09:01.730Z,12.12
2023-02-04T18:11:38.936Z,12.09
2023-02-04T18:14:17.265Z,12.08
2023-02-04T18:16:56.590Z,12.01
2023-02-04T18:19:31.778Z,11.99
2023-02-04T18:21:59.226Z,11.93
2023-02-04T18:24:36.588Z,11.88
2023-02-04T18:27:24.940Z,11.85
2023-02-04T18:29:56.500Z,11.83
2023-02-04T18:32:40.335Z,11.82
2023-02-04T18:35:43.683Z,11.71
2023-02-04T18:38:30.185Z,11.68
2023-02-04T18:41:13.994Z,11.64
2023-02-04T18:43:41.088Z,11.53
2023-02-04T18:46:27.688Z,11.47
2023-02-04T18:49:21.140Z,11.39
2023-02-04T18:51:48.401Z,11.34
2023-02-04T18:54:35.273Z,11.25
2023-02-04T18:57:16.034Z,11.20
2023-02-04T18:59:44.243Z,11.20
2023-02-04T19:02:36.736Z,11.14
2023-02-04T19:05:23.724Z,11.13
2023-02-04T19:08:16.247Z,11.10
2023-02-04T19:10:43.528Z,11.07
2023-02-04T19:13:38.214Z,11.03
2023-02-04T19:16:29.333Z,10.99
2023-02-04T19:18:56.919Z,11.02
2023-02-04T19:21:30.617Z,10.87
2023-02-04T19:24:23.749Z,10.86
2023-02-04T19:26:59.340Z,10.70
2023-02-04T19:29:36.851Z,10.71
2023-02-04T19:32:35.830Z,10.65
2023-02-04T19:35:20.490Z,10.61
2023-02-04T19:38:00.602Z,10.61
2023-02-04T19:40:27.923Z,10.55
2023-02-04T19:43:07.982Z,10.54
2023-02-04T19:45:35.074Z,10.45
2023-02-04T19:48:02.622Z,10.49
2023-02-04T19:50:34.754Z,10.42
2023-02-04T19:53:03.834Z,10.47
2023-02-04T19:55:44.215Z,10.43
2023-02-04T19:58:21.421Z,10.41
2023-02-04T20:01:03.916Z,10.39
2023-02-04T20:03:45.640Z,10.28
2023-02-04T20:06:35.901Z,10.26
2023-02-04T20:09:20.324Z,10.20
2023-02-04T20:11:57.640Z,10.18
2023-02-04T20:14:50.769Z,10.15
2023-02-04T20:17:23.689Z,10.11
2023-02-04T20:19:51.262Z,10.07
2023-02-04T20:22:18.148Z,10.03
2023-02-04T20:24:57.242Z,9.95
2023-02-04T20:27:36.535Z,9.94
2023-02-04T20:30:12.259Z,9.90
2023-02-04T20:32:47.679Z,9.84
2023-02-04T20:35:14.531Z,9.82
2023-02-04T20:37:43.058Z,9.78
2023-02-04T20:40:35.553Z,9.74
2023-02-04T20:43:06.568Z,9.70
2023-02-04T20:46:00.887Z,9.66
2023-02-04T20:48:34.020Z,9.62
2023-02-04T20:51:04.002Z,9.60
2023-02-04T20:53:52.365Z,9.58
2023-02-04T20:56:28.085Z,9.57
2023-02-04T20:59:16.008Z,9.46
2023-02-04T21:01:49.894Z,9.40
2023-02-04T21:04:32.190Z,9.30
2023-02-04T21:07:03.380Z,9.26
2023-02-04T21:09:33.107Z,9.23
2023-02-04T21:12:03.106Z,9.20
2023-02-04T21:14:30.305Z,9.17
2023-02-04T21:16:57.476Z,9.09
2023-02-04T21:19:26.003Z,9.04
2023-02-04T21:21:53.054Z,8.99
2023-02-04T21:24:20.045Z,8.97
2023-02-04T21:26:47.316Z,8.93
2023-02-04T21:29:14.321Z,8.96
2023-02-04T21:31:41.598Z,8.93
2023-02-04T21:34:09.982Z,8.93
2023-02-04T21:36:36.964Z,8.98
2023-02-04T21:39:04.389Z,8.93
2023-02-04T21:41:31.471Z,8.97
2023-02-04T21:43:58.534Z,8.92
2023-02-04T21:46:25.848Z,8.89
2023-02-04T21:48:53.079Z,8.91
2023-02-04T21:51:19.948Z,8.89
2023-02-04T21:53:46.988Z,8.92
2023-02-04T21:56:14.580Z,8.92
2023-02-04T21:58:41.827Z,9.00
2023-02-04T22:01:10.460Z,9.01
2023-02-04T22:03:37.763Z,9.01
2023-02-04T22:06:07.004Z,9.04
2023-02-04T22:08:33.959Z,8.99
2023-02-04T22:11:01.059Z,9.05
2023-02-04T22:13:28.018Z,9.00
2023-02-04T22:15:54.957Z,8.98
2023-02-04T22:18:22.083Z,9.04
2023-02-04T22:20:49.328Z,9.05
2023-02-04T22:23:16.698Z,9.03
2023-02-04T22:25:43.732Z,9.01
2023-02-04T22:28:10.718Z,9.02
2023-02-04T22:30:38.093Z,8.99
2023-02-04T22:33:05.243Z,9.01
2023-02-04T22:35:35.290Z,9.01
2023-02-04T22:38:03.348Z,9.00
2023-02-04T22:40:30.449Z,9.08
2023-02-04T22:42:57.404Z,8.99
2023-02-04T22:45:24.941Z,9.05
2023-02-04T22:47:52.145Z,9.01
2023-02-04T22:50:19.152Z,8.96
2023-02-04T22:52:47.655Z,9.02
2023-02-04T22:55:14.685Z,8.98
2023-02-04T22:57:41.619Z,8.96
2023-02-04T23:00:11.111Z,8.94
2023-02-04T23:02:38.970Z,8.97
2023-02-04T23:05:06.570Z,8.92
2023-02-04T23:07:33.858Z,8.92
2023-02-04T23:10:00.824Z,8.90
2023-02-04T23:12:28.005Z,8.91
2023-02-04T23:14:55.006Z,8.88
2023-02-04T23:17:23.233Z,8.81
2023-02-04T23:19:50.311Z,8.76
2023-02-04T23:22:17.783Z,8.81
2023-02-04T23:24:45.029Z,8.75
2023-02-04T23:27:12.948Z,8.70
2023-02-04T23:29:40.193Z,8.61
2023-02-04T23:32:08.646Z,8.68
2023-02-04T23:34:36.141Z,8.60
2023-02-04T23:37:03.432Z,8.64
2023-02-04T23:39:30.799Z,8.60
2023-02-04T23:41:58.683Z,8.59
2023-02-04T23:44:26.074Z,8.54
2023-02-04T23:46:53.465Z,8.46
2023-02-04T23:49:21.190Z,8.43
2023-02-04T23:51:48.543Z,8.41
2023-02-04T23:54:15.648Z,8.40
2023-02-04T23:56:43.644Z,8.39
2023-02-04T23:59:10.641Z,8.36
